Time;durP1;ratioP1;P1;durP2;ratioP2;P2;SDS_P1;SDS_P2;PMS_P1;PMS_P2;Temp;Humidity;BMP_temperature;BMP_pressure;BME280_temperature;BME280_humidity;BME280_pressure;Samples;Min_cycle;Max_cycle;Signal;HPM_P1;HPM_P2
2022/06/12 00:00:35;;;;;;;9.32;2.70;;;14.20;99.90;;;;;;5071404;28;20552;-75
2022/06/12 00:03:03;;;;;;;9.38;3.00;;;14.20;99.90;;;;;;5071997;28;20403;-75
2022/06/12 00:05:31;;;;;;;7.40;2.80;;;14.10;99.90;;;;;;5071492;28;20067;-75
2022/06/12 00:07:57;;;;;;;9.52;3.20;;;13.90;99.90;;;;;;5071577;28;20049;-75
2022/06/12 00:10:22;;;;;;;7.32;2.63;;;13.90;99.90;;;;;;5054769;28;20039;-75
2022/06/12 00:12:48;;;;;;;8.90;2.75;;;13.90;99.90;;;;;;5071577;28;20033;-75
2022/06/12 00:15:17;;;;;;;7.68;3.30;;;13.80;99.90;;;;;;5071169;28;20032;-75
2022/06/12 00:17:43;;;;;;;8.75;2.65;;;13.80;99.90;;;;;;5071369;28;20139;-75
2022/06/12 00:20:12;;;;;;;6.43;2.47;;;13.80;99.90;;;;;;5071260;28;20036;-75
2022/06/12 00:22:38;;;;;;;9.75;3.75;;;13.80;99.90;;;;;;5071629;28;20036;-75
2022/06/12 00:25:09;;;;;;;9.63;2.88;;;13.80;99.90;;;;;;5071304;28;20123;-75
2022/06/12 00:27:37;;;;;;;7.97;2.70;;;13.80;99.90;;;;;;5071466;28;20124;-75
2022/06/12 00:30:05;;;;;;;6.75;2.47;;;13.80;99.90;;;;;;5071427;28;20406;-75
2022/06/12 00:32:31;;;;;;;6.30;2.20;;;13.70;99.90;;;;;;5071161;28;20093;-75
2022/06/12 00:34:58;;;;;;;7.43;2.70;;;13.70;99.90;;;;;;5072048;28;20116;-75
2022/06/12 00:37:26;;;;;;;9.10;2.33;;;13.70;99.90;;;;;;5071323;28;20032;-75
2022/06/12 00:39:54;;;;;;;4.03;2.05;;;13.70;99.90;;;;;;5072094;28;20169;-75
2022/06/12 00:42:28;;;;;;;10.60;2.90;;;13.70;99.90;;;;;;5070988;28;20067;-75
2022/06/12 00:44:56;;;;;;;7.85;2.72;;;13.60;99.90;;;;;;5070953;28;20044;-75
2022/06/12 00:47:22;;;;;;;8.35;3.90;;;13.50;99.90;;;;;;5070789;28;20102;-75
2022/06/12 00:49:57;;;;;;;5.28;2.58;;;13.60;99.90;;;;;;5071098;28;20494;-75
2022/06/12 00:52:41;;;;;;;5.43;1.80;;;13.50;99.90;;;;;;5072049;28;20502;-75
2022/06/12 00:55:24;;;;;;;12.32;2.67;;;13.50;99.90;;;;;;5070715;28;20115;-75
2022/06/12 00:57:56;;;;;;;5.35;2.15;;;13.40;99.90;;;;;;5070653;28;20498;-75
2022/06/12 01:00:22;;;;;;;10.63;2.70;;;13.40;99.90;;;;;;5070414;28;20169;-75
2022/06/12 01:02:48;;;;;;;10.43;2.35;;;13.40;99.90;;;;;;5070433;28;20040;-75
2022/06/12 01:08:22;;;;;;;7.95;2.40;;;13.40;99.90;;;;;;5013004;28;20084;-75
2022/06/12 01:10:50;;;;;;;8.80;2.47;;;13.40;99.90;;;;;;5012351;28;20049;-75
2022/06/12 01:13:21;;;;;;;7.15;2.20;;;13.40;99.90;;;;;;5041736;28;20056;-75
2022/06/12 01:15:57;;;;;;;8.88;2.75;;;13.40;99.90;;;;;;5068651;28;20048;-75
2022/06/12 01:18:27;;;;;;;8.50;3.13;;;13.30;99.90;;;;;;5066568;28;20029;-75
2022/06/12 01:21:27;;;;;;;10.90;3.33;;;13.30;99.90;;;;;;5053691;28;20052;-75
2022/06/12 01:24:24;;;;;;;4.63;2.20;;;13.30;99.90;;;;;;5070796;28;20395;-75
2022/06/12 01:27:04;;;;;;;7.68;2.65;;;13.20;99.90;;;;;;5070177;28;20049;-75
2022/06/12 01:30:07;;;;;;;9.25;2.55;;;13.20;99.90;;;;;;5070754;28;20428;-75
2022/06/12 01:32:39;;;;;;;6.38;2.75;;;13.20;99.90;;;;;;5070753;28;20114;-75
2022/06/12 01:35:13;;;;;;;8.02;2.88;;;13.10;99.90;;;;;;5070624;28;20402;-75
2022/06/12 01:37:44;;;;;;;;;;;13.10;99.90;;;;;;5071239;28;20039;-75
2022/06/12 01:40:25;;;;;;;10.52;2.90;;;13.10;99.90;;;;;;5069943;28;19923;-75
2022/06/12 01:43:04;;;;;;;7.60;2.47;;;13.00;99.90;;;;;;5070567;28;20486;-75
2022/06/12 01:46:05;;;;;;;10.52;2.88;;;13.00;99.90;;;;;;5070429;28;20071;-75
2022/06/12 01:48:48;;;;;;;8.95;2.47;;;13.00;99.90;;;;;;5070467;28;20068;-75
2022/06/12 01:51:37;;;;;;;8.05;2.60;;;13.00;99.90;;;;;;5070342;28;20494;-75
2022/06/12 01:54:21;;;;;;;10.10;2.60;;;13.00;99.90;;;;;;5069992;28;20055;-75
2022/06/12 01:57:04;;;;;;;6.30;2.42;;;13.00;99.90;;;;;;5070852;28;20047;-75
2022/06/12 01:59:41;;;;;;;9.30;2.42;;;12.90;99.90;;;;;;5070353;28;20048;-75
2022/06/12 02:02:28;;;;;;;6.30;2.97;;;12.90;99.90;;;;;;5069789;28;20120;-75
2022/06/12 02:05:23;;;;;;;7.35;2.58;;;12.90;99.90;;;;;;5070172;28;20119;-75
2022/06/12 02:08:22;;;;;;;8.00;2.85;;;12.90;99.90;;;;;;5070120;28;20059;-75
2022/06/12 02:10:49;;;;;;;6.60;3.20;;;12.80;99.90;;;;;;5002038;28;20056;-75
2022/06/12 02:13:27;;;;;;;8.02;2.88;;;12.80;99.90;;;;;;5070191;28;20040;-75
2022/06/12 02:16:05;;;;;;;10.93;3.00;;;12.80;99.90;;;;;;5071281;28;20155;-75
2022/06/12 02:18:37;;;;;;;5.25;2.20;;;12.80;99.90;;;;;;5070123;28;20087;-75
2022/06/12 02:21:14;;;;;;;5.47;2.45;;;12.70;99.90;;;;;;5071099;28;20040;-75
2022/06/12 02:23:50;;;;;;;9.48;2.70;;;12.80;99.90;;;;;;5070493;28;20045;-75
2022/06/12 02:26:24;;;;;;;7.10;2.90;;;12.70;99.90;;;;;;5070484;28;20054;-75
2022/06/12 02:28:59;;;;;;;8.63;3.22;;;12.70;99.90;;;;;;5071522;28;20055;-75
2022/06/12 02:31:30;;;;;;;6.13;2.53;;;12.70;99.90;;;;;;5069605;28;20049;-75
2022/06/12 02:34:01;;;;;;;8.38;2.47;;;12.70;99.90;;;;;;5069907;28;20098;-75
2022/06/12 02:36:35;;;;;;;9.82;2.67;;;12.80;99.90;;;;;;5071416;28;20051;-75
2022/06/12 02:39:07;;;;;;;6.82;2.88;;;12.80;99.90;;;;;;5070320;28;20444;-75
2022/06/12 02:41:40;;;;;;;10.20;4.55;;;12.80;99.90;;;;;;5074477;28;20051;-75
2022/06/12 02:44:16;;;;;;;8.10;2.53;;;12.80;99.90;;;;;;5074592;28;20052;-75
2022/06/12 02:47:05;;;;;;;8.65;2.35;;;12.70;99.90;;;;;;5073015;28;20048;-75
2022/06/12 02:49:34;;;;;;;10.45;3.22;;;12.70;99.90;;;;;;5073293;28;20118;-75
2022/06/12 02:52:18;;;;;;;6.10;2.50;;;12.70;99.90;;;;;;5073965;28;20132;-75
2022/06/12 02:54:59;;;;;;;8.13;2.67;;;12.70;99.90;;;;;;5072842;28;20082;-75
2022/06/12 02:57:43;;;;;;;9.93;2.97;;;12.70;99.90;;;;;;5073196;28;20037;-75
2022/06/12 03:00:25;;;;;;;6.07;2.38;;;12.70;99.90;;;;;;5073943;28;20033;-75
2022/06/12 03:03:06;;;;;;;11.57;3.40;;;12.60;99.90;;;;;;5073781;28;20037;-75
2022/06/12 03:05:35;;;;;;;9.60;2.63;;;12.60;99.90;;;;;;5074144;28;20136;-75
2022/06/12 03:08:15;;;;;;;9.20;3.45;;;12.60;99.90;;;;;;5072836;28;20367;-75
2022/06/12 03:10:53;;;;;;;10.00;4.82;;;12.60;99.90;;;;;;5055805;28;20123;-75
2022/06/12 03:13:21;;;;;;;6.85;2.63;;;12.70;99.90;;;;;;5072580;28;20122;-75
2022/06/12 03:15:49;;;;;;;9.38;2.90;;;12.60;99.90;;;;;;5072511;28;20498;-75
2022/06/12 03:18:21;;;;;;;10.98;3.90;;;12.60;99.90;;;;;;5072661;28;20047;-75
2022/06/12 03:21:22;;;;;;;13.37;3.00;;;12.60;99.90;;;;;;5072340;28;20040;-75
2022/06/12 03:24:00;;;;;;;6.32;3.20;;;12.60;99.90;;;;;;5024143;28;20290;-75
2022/06/12 03:27:01;;;;;;;8.95;2.50;;;12.60;99.90;;;;;;5072762;28;20408;-75
2022/06/12 03:29:33;;;;;;;6.40;2.83;;;12.60;99.90;;;;;;5056224;28;20048;-75
2022/06/12 03:32:01;;;;;;;7.55;2.55;;;12.60;99.90;;;;;;5072043;28;20040;-75
2022/06/12 03:34:55;;;;;;;6.40;2.35;;;12.70;99.90;;;;;;5073567;28;20037;-75
2022/06/12 03:37:31;;;;;;;7.25;2.28;;;12.70;99.90;;;;;;5072246;28;20060;-75
2022/06/12 03:40:15;;;;;;;7.63;3.63;;;12.70;99.90;;;;;;5073284;28;20047;-74
2022/06/12 03:43:01;;;;;;;7.30;2.92;;;12.70;99.90;;;;;;5072017;28;20052;-75
2022/06/12 03:45:45;;;;;;;10.02;2.70;;;12.80;99.90;;;;;;5072307;28;20086;-75
2022/06/12 03:48:11;;;;;;;9.02;2.47;;;12.80;99.90;;;;;;5072129;28;20047;-75
2022/06/12 03:50:41;;;;;;;8.40;2.60;;;12.80;99.90;;;;;;5072653;28;20033;-75
2022/06/12 03:53:16;;;;;;;6.25;2.03;;;12.80;99.90;;;;;;5072992;28;20044;-75
2022/06/12 03:58:57;;;;;;;7.43;3.15;;;12.90;99.90;;;;;;5071799;28;20048;-75
2022/06/12 04:01:24;;;;;;;7.47;2.50;;;12.90;99.90;;;;;;5095596;22;20549;-72
2022/06/12 04:03:51;;;;;;;7.10;2.35;;;12.90;99.90;;;;;;5093339;28;20114;-72
2022/06/12 04:06:21;;;;;;;7.13;2.70;;;12.90;99.90;;;;;;5075084;28;20123;-72
2022/06/12 04:09:00;;;;;;;13.43;3.40;;;12.90;99.90;;;;;;5093157;28;20398;-73
2022/06/12 04:11:28;;;;;;;6.93;2.75;;;12.90;99.90;;;;;;5092645;28;20444;-73
2022/06/12 04:13:54;;;;;;;6.93;1.90;;;12.90;99.90;;;;;;5092208;28;20087;-73
2022/06/12 04:16:43;;;;;;;9.23;2.53;;;12.90;99.90;;;;;;5093046;28;20036;-72
2022/06/12 04:19:15;;;;;;;7.13;3.03;;;13.00;99.90;;;;;;5092982;28;20089;-72
2022/06/12 04:21:50;;;;;;;8.85;2.63;;;13.00;99.90;;;;;;5092508;28;20035;-72
2022/06/12 04:24:39;;;;;;;8.60;3.03;;;13.10;99.90;;;;;;5092996;28;20076;-72
2022/06/12 04:27:14;;;;;;;10.30;2.38;;;13.10;99.90;;;;;;5092939;28;20048;-72
2022/06/12 04:29:58;;;;;;;11.45;3.22;;;13.20;99.90;;;;;;5092616;28;20039;-73
2022/06/12 04:32:24;;;;;;;8.63;2.53;;;13.20;99.90;;;;;;5092577;28;20048;-73
2022/06/12 04:34:50;;;;;;;9.77;2.63;;;13.30;99.90;;;;;;5092897;28;20094;-72
2022/06/12 04:37:23;;;;;;;8.30;2.65;;;13.40;99.90;;;;;;5092390;28;20071;-73
2022/06/12 04:39:50;;;;;;;8.13;3.28;;;13.50;99.90;;;;;;5092701;28;20111;-72
2022/06/12 04:42:19;;;;;;;7.65;2.72;;;13.50;99.90;;;;;;5092220;28;20071;-72
2022/06/12 04:44:45;;;;;;;7.03;2.90;;;13.70;99.90;;;;;;5092401;28;20109;-72
2022/06/12 04:47:13;;;;;;;7.00;2.88;;;13.80;99.90;;;;;;5092274;28;20493;-73
2022/06/12 04:49:40;;;;;;;6.07;2.22;;;14.00;99.90;;;;;;5092581;28;20055;-72
2022/06/12 04:52:09;;;;;;;11.43;2.90;;;14.10;99.90;;;;;;5092004;28;20042;-72
2022/06/12 04:54:36;;;;;;;6.75;2.97;;;14.30;99.90;;;;;;5092024;28;20493;-73
2022/06/12 04:57:03;;;;;;;7.75;2.55;;;14.60;99.90;;;;;;5092154;28;20089;-72
2022/06/12 04:59:29;;;;;;;6.03;2.00;;;14.80;99.90;;;;;;5092176;28;20448;-73
2022/06/12 05:01:55;;;;;;;9.88;2.83;;;15.10;99.90;;;;;;5090909;28;20048;-73
2022/06/12 05:04:22;;;;;;;7.95;2.72;;;15.30;99.90;;;;;;5092241;28;20063;-73
2022/06/12 05:06:49;;;;;;;8.95;2.80;;;15.60;99.90;;;;;;5091910;28;20040;-72
2022/06/12 05:09:15;;;;;;;7.90;2.20;;;15.80;99.90;;;;;;5092170;28;20114;-73
2022/06/12 05:11:42;;;;;;;10.57;2.80;;;16.00;99.90;;;;;;5091329;28;20046;-73
2022/06/12 05:14:08;;;;;;;5.97;2.28;;;16.30;99.90;;;;;;5091429;28;20050;-73
2022/06/12 05:16:36;;;;;;;10.00;2.40;;;16.40;99.90;;;;;;5091883;28;20489;-72
2022/06/12 05:19:04;;;;;;;13.85;2.45;;;16.70;99.90;;;;;;5090689;28;20050;-73
2022/06/12 05:21:31;;;;;;;8.93;2.30;;;17.10;99.90;;;;;;5091698;28;20087;-72
2022/06/12 05:23:58;;;;;;;9.27;2.42;;;17.30;99.90;;;;;;5091963;28;20036;-72
2022/06/12 05:26:24;;;;;;;9.85;2.33;;;17.50;99.90;;;;;;5092012;28;20040;-73
2022/06/12 05:28:50;;;;;;;9.15;2.83;;;17.70;99.90;;;;;;5090527;28;20044;-73
2022/06/12 05:31:16;;;;;;;7.30;2.35;;;17.90;99.90;;;;;;5090392;28;20044;-73
2022/06/12 05:33:43;;;;;;;7.45;2.33;;;18.30;99.90;;;;;;5090496;28;20046;-72
2022/06/12 05:36:12;;;;;;;12.23;4.22;;;18.50;99.90;;;;;;5090880;28;20040;-72
2022/06/12 05:38:38;;;;;;;16.70;2.97;;;18.50;99.90;;;;;;5090547;28;20094;-73
2022/06/12 05:41:04;;;;;;;10.73;3.08;;;18.70;99.90;;;;;;5090409;28;20440;-73
2022/06/12 05:43:29;;;;;;;11.48;2.85;;;19.00;99.90;;;;;;5090745;28;20036;-73
2022/06/12 05:45:56;;;;;;;9.32;2.70;;;19.20;99.90;;;;;;5090733;28;20537;-73
2022/06/12 05:48:22;;;;;;;18.80;3.85;;;19.30;99.90;;;;;;5090749;28;20044;-73
2022/06/12 05:50:59;;;;;;;12.50;3.15;;;19.60;99.90;;;;;;5090206;28;20040;-73
2022/06/12 05:53:27;;;;;;;13.68;3.75;;;19.40;99.90;;;;;;5092834;28;20080;-73
2022/06/12 05:55:54;;;;;;;12.52;2.90;;;19.30;99.90;;;;;;5091954;28;20036;-72
2022/06/12 05:58:22;;;;;;;14.82;3.78;;;19.40;99.90;;;;;;5091805;28;20051;-73
2022/06/12 06:00:48;;;;;;;9.70;3.60;;;19.40;99.90;;;;;;5091532;28;20029;-73
2022/06/12 06:03:14;;;;;;;10.70;3.20;;;19.40;99.90;;;;;;5091544;28;20482;-73
2022/06/12 06:05:41;;;;;;;15.45;3.97;;;19.30;99.90;;;;;;5091518;28;20039;-72
2022/06/12 06:08:08;;;;;;;11.95;4.45;;;19.50;99.90;;;;;;5091488;28;20036;-73
2022/06/12 06:10:35;;;;;;;19.35;3.78;;;19.40;99.90;;;;;;5091194;28;20040;-73
2022/06/12 06:13:01;;;;;;;12.65;3.47;;;19.60;99.90;;;;;;5092013;28;20039;-72
2022/06/12 06:15:26;;;;;;;9.30;3.55;;;19.70;99.90;;;;;;5095435;28;20066;-73
2022/06/12 06:17:52;;;;;;;19.00;3.53;;;19.80;99.90;;;;;;5095457;28;20039;-73
2022/06/12 06:20:24;;;;;;;17.55;4.07;;;20.00;99.90;;;;;;5094926;28;20043;-73
2022/06/12 06:22:50;;;;;;;8.50;4.03;;;20.30;99.90;;;;;;5094964;28;20039;-73
2022/06/12 06:25:17;;;;;;;13.27;3.35;;;20.40;99.90;;;;;;5095372;28;20089;-73
2022/06/12 06:27:43;;;;;;;14.82;3.70;;;20.50;99.90;;;;;;5095266;28;20039;-73
2022/06/12 06:30:09;;;;;;;14.45;4.20;;;20.60;99.90;;;;;;5094421;28;20661;-73
2022/06/12 06:32:35;;;;;;;13.75;3.72;;;20.40;99.90;;;;;;5094813;28;20040;-73
2022/06/12 06:35:01;;;;;;;23.00;5.10;;;20.40;99.90;;;;;;5094728;28;20489;-73
2022/06/12 06:37:27;;;;;;;16.42;4.32;;;20.40;99.90;;;;;;5094810;28;20557;-73
2022/06/12 06:39:52;;;;;;;14.95;3.50;;;20.40;99.90;;;;;;5095070;28;20036;-73
2022/06/12 06:42:18;;;;;;;17.48;4.57;;;20.50;99.90;;;;;;5094650;28;20115;-72
2022/06/12 06:47:28;;;;;;;16.50;4.03;;;20.80;99.90;;;;;;5094777;28;20044;-73
2022/06/12 06:49:54;;;;;;;12.25;3.90;;;20.80;99.90;;;;;;5094403;28;20040;-73
2022/06/12 06:52:20;;;;;;;12.52;4.05;;;20.90;99.90;;;;;;5094705;28;20036;-73
2022/06/12 06:54:46;;;;;;;18.10;3.92;;;21.30;99.90;;;;;;5094700;28;20121;-73
2022/06/12 06:57:12;;;;;;;13.43;4.65;;;21.70;99.90;;;;;;5094781;28;20066;-73
2022/06/12 06:59:38;;;;;;;14.63;4.53;;;21.90;99.90;;;;;;5094590;28;20044;-73
2022/06/12 07:02:04;;;;;;;19.92;3.67;;;22.00;99.50;;;;;;5094085;28;20036;-73
2022/06/12 07:04:30;;;;;;;18.15;4.65;;;21.80;98.60;;;;;;5094366;28;20043;-73
2022/06/12 07:06:55;;;;;;;18.40;4.25;;;21.80;98.60;;;;;;5094570;28;20032;-73
2022/06/12 07:09:21;;;;;;;13.60;3.88;;;21.90;98.80;;;;;;5094479;28;20044;-73
2022/06/12 07:11:47;;;;;;;12.10;4.45;;;21.90;98.70;;;;;;5092754;28;20040;-73
2022/06/12 07:14:12;;;;;;;16.38;4.18;;;22.00;98.20;;;;;;5094023;28;20040;-73
2022/06/12 07:16:39;;;;;;;13.70;4.25;;;22.20;97.80;;;;;;5093978;28;20115;-73
2022/06/12 07:19:06;;;;;;;18.27;4.88;;;22.20;97.50;;;;;;5094069;28;20097;-73
2022/06/12 07:21:32;;;;;;;14.57;3.42;;;22.40;97.60;;;;;;5094134;28;20061;-73
2022/06/12 07:23:57;;;;;;;14.13;3.47;;;22.50;97.20;;;;;;5094098;28;20039;-73
2022/06/12 07:26:28;;;;;;;10.65;3.78;;;22.80;97.40;;;;;;5093314;28;20085;-73
2022/06/12 07:28:54;;;;;;;14.35;4.13;;;22.90;96.40;;;;;;5093964;28;20097;-73
2022/06/12 07:31:21;;;;;;;11.90;3.60;;;23.00;96.00;;;;;;5093290;28;20044;-73
2022/06/12 07:33:47;;;;;;;16.55;4.45;;;22.90;95.40;;;;;;5094006;28;20048;-73
2022/06/12 07:36:14;;;;;;;16.05;4.10;;;22.90;95.30;;;;;;5093641;28;20048;-72
2022/06/12 07:38:41;;;;;;;15.52;4.18;;;23.30;95.50;;;;;;5093890;28;20036;-72
2022/06/12 07:41:08;;;;;;;15.55;4.78;;;23.00;94.20;;;;;;5093365;28;20028;-73
2022/06/12 07:43:35;;;;;;;15.00;4.65;;;23.20;95.20;;;;;;5093615;28;20485;-72
2022/06/12 07:46:03;;;;;;;9.57;3.40;;;23.30;94.30;;;;;;5093314;28;20047;-73
2022/06/12 07:48:31;;;;;;;13.15;3.63;;;23.40;95.20;;;;;;5093753;28;20032;-72
2022/06/12 07:50:58;;;;;;;16.15;3.72;;;23.60;95.10;;;;;;5091739;28;20128;-74
2022/06/12 07:53:25;;;;;;;12.90;3.80;;;24.10;94.60;;;;;;5093323;28;20040;-73
2022/06/12 07:55:52;;;;;;;11.38;3.28;;;24.40;94.10;;;;;;5093277;28;20036;-73
2022/06/12 07:58:23;;;;;;;10.45;3.28;;;24.10;92.60;;;;;;5093236;28;20382;-74
2022/06/12 08:00:50;;;;;;;13.40;3.38;;;24.10;92.80;;;;;;5092851;28;20493;-73
2022/06/12 08:03:16;;;;;;;13.85;3.17;;;23.90;91.80;;;;;;5093001;28;20119;-73
2022/06/12 08:05:41;;;;;;;16.88;4.10;;;23.70;91.30;;;;;;5091838;28;20063;-74
2022/06/12 08:08:07;;;;;;;15.27;4.25;;;23.20;91.60;;;;;;5093291;28;20032;-73
2022/06/12 08:10:33;;;;;;;10.90;3.38;;;22.60;92.40;;;;;;5092940;28;20089;-72
2022/06/12 08:13:10;;;;;;;13.15;3.75;;;22.30;93.40;;;;;;5092911;28;20043;-72
2022/06/12 08:15:38;;;;;;;14.45;4.00;;;22.60;94.20;;;;;;5093110;28;20044;-75
2022/06/12 08:18:04;;;;;;;13.93;3.60;;;22.60;94.10;;;;;;5093210;28;20401;-73
2022/06/12 08:20:35;;;;;;;15.68;4.00;;;22.60;94.40;;;;;;5092404;28;20378;-73
2022/06/12 08:23:27;;;;;;;14.43;3.35;;;22.50;95.30;;;;;;5091593;28;20516;-72
2022/06/12 08:26:02;;;;;;;13.57;4.90;;;22.40;94.70;;;;;;5093072;28;20043;-72
2022/06/12 08:28:31;;;;;;;13.35;3.95;;;22.40;94.80;;;;;;5093060;28;20043;-73
2022/06/12 08:30:59;;;;;;;16.17;4.03;;;22.50;94.00;;;;;;5092840;28;20036;-73
2022/06/12 08:33:25;;;;;;;16.67;3.90;;;23.00;93.90;;;;;;5091494;28;20036;-72
2022/06/12 08:35:51;;;;;;;12.85;3.72;;;23.40;93.60;;;;;;5092376;28;20042;-72
2022/06/12 08:38:16;;;;;;;12.57;3.60;;;24.00;93.80;;;;;;5091743;28;20114;-73
2022/06/12 08:40:46;;;;;;;17.02;3.97;;;24.30;93.30;;;;;;5092217;28;20110;-73
2022/06/12 08:43:41;;;;;;;9.43;3.20;;;23.60;89.40;;;;;;5091113;28;20032;-73
2022/06/12 08:46:22;;;;;;;11.50;2.95;;;23.50;90.50;;;;;;5074637;28;20071;-73
2022/06/12 08:48:54;;;;;;;11.85;3.22;;;23.80;91.70;;;;;;5085000;28;20032;-73
2022/06/12 08:51:36;;;;;;;11.68;3.03;;;23.80;91.00;;;;;;5090833;28;20177;-72
2022/06/12 08:54:10;;;;;;;7.65;2.90;;;23.40;90.80;;;;;;5091185;28;20055;-72
2022/06/12 08:56:52;;;;;;;8.32;2.47;;;23.00;90.10;;;;;;5091090;28;20047;-73
2022/06/12 08:59:34;;;;;;;7.70;2.90;;;23.20;90.90;;;;;;5091387;28;20493;-71
2022/06/12 09:02:05;;;;;;;13.63;3.15;;;22.90;90.40;;;;;;5090608;28;20071;-73
2022/06/12 09:04:31;;;;;;;12.02;3.20;;;22.90;91.60;;;;;;5090939;28;20394;-73
2022/06/12 09:07:11;;;;;;;13.95;3.15;;;22.90;91.40;;;;;;5092034;28;20055;-73
2022/06/12 09:09:57;;;;;;;13.07;3.95;;;23.40;91.50;;;;;;5092382;28;20075;-74
2022/06/12 09:12:59;;;;;;;8.20;2.55;;;23.40;91.20;;;;;;5091936;28;20497;-74
2022/06/12 09:15:48;;;;;;;12.52;3.55;;;23.50;91.10;;;;;;5050476;28;20460;-73
2022/06/12 09:18:22;;;;;;;15.55;3.95;;;23.30;90.80;;;;;;5090673;28;20493;-74
2022/06/12 09:20:51;;;;;;;10.82;3.28;;;23.40;91.60;;;;;;5091805;28;20100;-73
2022/06/12 09:23:48;;;;;;;10.05;2.88;;;23.50;90.50;;;;;;5090814;28;20446;-74
2022/06/12 09:26:40;;;;;;;11.82;3.28;;;23.60;89.20;;;;;;5053667;28;20082;-74
2022/06/12 09:29:25;;;;;;;12.45;3.05;;;24.20;89.60;;;;;;5090666;28;20048;-74
2022/06/12 09:31:56;;;;;;;16.08;3.58;;;24.20;85.20;;;;;;5090530;28;20127;-73
2022/06/12 09:34:27;;;;;;;13.55;3.28;;;24.40;85.10;;;;;;5091698;28;20450;-74
2022/06/12 09:40:16;;;;;;;10.18;2.70;;;24.60;84.90;;;;;;5086866;28;20040;-76
2022/06/12 09:42:50;;;;;;;12.55;3.08;;;24.20;84.20;;;;;;5073857;28;20083;-74
2022/06/12 09:45:31;;;;;;;9.07;2.80;;;24.10;85.30;;;;;;5089070;28;20119;-73
2022/06/12 09:48:20;;;;;;;13.10;2.75;;;23.70;84.60;;;;;;5072061;28;20058;-73
2022/06/12 09:51:09;;;;;;;10.68;3.20;;;23.30;85.10;;;;;;5075250;28;20067;-73
2022/06/12 09:53:48;;;;;;;9.13;2.85;;;22.60;82.80;;;;;;5082019;28;20518;-73
2022/06/12 09:56:20;;;;;;;9.40;2.90;;;22.30;83.20;;;;;;5080229;28;20115;-73
2022/06/12 09:59:26;;;;;;;10.20;2.60;;;22.40;86.20;;;;;;5093835;28;20028;-73
2022/06/12 10:01:56;;;;;;;9.00;3.20;;;22.80;89.20;;;;;;5071888;28;20493;-73
2022/06/12 10:04:43;;;;;;;12.18;3.17;;;22.90;86.60;;;;;;5088352;28;20040;-74
2022/06/12 10:07:15;;;;;;;6.30;2.08;;;22.60;85.20;;;;;;5093405;28;20090;-73
2022/06/12 10:09:56;;;;;;;8.68;2.10;;;22.40;85.30;;;;;;5094776;28;20032;-73
2022/06/12 10:12:36;;;;;;;8.80;2.22;;;22.60;85.60;;;;;;5089159;28;20028;-74
2022/06/12 10:15:10;;;;;;;6.88;2.40;;;22.40;81.80;;;;;;5091119;28;20044;-74
2022/06/12 10:17:56;;;;;;;5.90;2.20;;;22.50;84.40;;;;;;5089073;28;20028;-72
2022/06/12 10:20:34;;;;;;;6.45;2.40;;;22.80;83.70;;;;;;5074200;28;20119;-72
2022/06/12 10:23:00;;;;;;;7.72;2.47;;;22.70;81.80;;;;;;5074867;28;20036;-73
2022/06/12 10:25:35;;;;;;;5.70;2.67;;;22.90;82.90;;;;;;5074571;28;20037;-72
2022/06/12 10:28:30;;;;;;;6.70;2.53;;;23.00;82.50;;;;;;5075249;28;20040;-73
2022/06/12 10:31:20;;;;;;;5.78;2.20;;;22.90;81.50;;;;;;5066647;28;20048;-73
2022/06/12 10:33:56;;;;;;;9.10;2.35;;;22.80;80.00;;;;;;5091663;28;20439;-73
2022/06/12 10:36:26;;;;;;;6.22;1.80;;;22.60;79.20;;;;;;5075833;28;20098;-72
2022/06/12 10:39:03;;;;;;;4.80;1.73;;;22.60;79.50;;;;;;5076207;28;20032;-72
2022/06/12 10:41:30;;;;;;;3.40;1.42;;;22.60;78.30;;;;;;5075767;28;20129;-72
2022/06/12 10:43:57;;;;;;;4.50;1.42;;;22.50;76.70;;;;;;5082608;28;20040;-72
2022/06/12 10:46:31;;;;;;;4.60;1.60;;;22.20;76.80;;;;;;5073311;28;20132;-73
2022/06/12 10:49:04;;;;;;;5.28;1.42;;;22.40;81.10;;;;;;5073552;28;20036;-73
2022/06/12 10:51:36;;;;;;;4.13;1.27;;;22.40;74.80;;;;;;5074072;28;20084;-73
2022/06/12 10:54:20;;;;;;;5.32;1.58;;;22.40;75.40;;;;;;5074760;28;20098;-72
2022/06/12 10:57:11;;;;;;;4.25;1.50;;;22.20;73.20;;;;;;5074622;28;20052;-72
2022/06/12 10:59:51;;;;;;;4.82;1.50;;;21.80;74.70;;;;;;5078868;28;20040;-71
2022/06/12 11:02:47;;;;;;;7.18;2.50;;;21.50;73.60;;;;;;5083646;28;20107;-73
2022/06/12 11:05:42;;;;;;;7.63;1.73;;;21.70;78.60;;;;;;5092205;28;20387;-72
2022/06/12 11:08:28;;;;;;;4.97;1.75;;;21.80;77.10;;;;;;5081749;28;20162;-73
2022/06/12 11:10:57;;;;;;;5.13;1.40;;;21.60;75.00;;;;;;5086802;28;20455;-73
2022/06/12 11:13:54;;;;;;;6.43;2.05;;;21.40;73.40;;;;;;5072779;28;20043;-73
2022/06/12 11:16:48;;;;;;;3.72;1.25;;;21.70;76.90;;;;;;5072865;28;20044;-72
2022/06/12 11:19:21;;;;;;;;;;;21.90;76.90;;;;;;5074678;28;20080;-74
2022/06/12 11:22:05;;;;;;;3.50;2.10;;;22.10;76.70;;;;;;5077872;28;19917;-72
2022/06/12 11:25:04;;;;;;;8.15;3.60;;;22.40;78.30;;;;;;5085360;28;20040;-72
2022/06/12 11:27:54;;;;;;;5.25;2.10;;;22.50;73.80;;;;;;5088598;28;20044;-73
2022/06/12 11:30:39;;;;;;;4.82;1.60;;;22.40;72.70;;;;;;5093223;28;20105;-74
2022/06/12 11:33:13;;;;;;;6.82;4.18;;;22.60;74.40;;;;;;5073317;28;20044;-74
2022/06/12 11:36:01;;;;;;;4.75;1.92;;;22.40;71.70;;;;;;5072287;28;20056;-73
2022/06/12 11:38:53;;;;;;;11.93;6.05;;;22.40;67.60;;;;;;5083202;28;20505;-74
2022/06/12 11:41:54;;;;;;;12.52;8.35;;;22.10;69.10;;;;;;5089513;28;20095;-73
2022/06/12 11:44:36;;;;;;;13.50;4.60;;;22.20;74.50;;;;;;5089759;28;20054;-74
2022/06/12 11:47:44;;;;;;;4.95;2.53;;;22.20;71.30;;;;;;5072164;28;20040;-74
2022/06/12 11:50:34;;;;;;;4.63;1.92;;;22.40;67.00;;;;;;5071407;28;20044;-73
2022/06/12 11:53:18;;;;;;;7.03;4.15;;;22.40;66.60;;;;;;5075678;28;20069;-73
2022/06/12 11:56:00;;;;;;;5.65;2.10;;;22.60;72.30;;;;;;5072008;28;20052;-73
2022/06/12 11:58:57;;;;;;;5.70;2.83;;;22.40;67.50;;;;;;5071762;28;20704;-72
2022/06/12 12:01:40;;;;;;;6.28;2.38;;;21.90;67.00;;;;;;5072573;28;20052;-73
2022/06/12 12:04:32;;;;;;;8.60;2.65;;;22.10;70.00;;;;;;5071569;28;20418;-72
2022/06/12 12:07:09;;;;;;;5.80;1.88;;;22.20;69.00;;;;;;5073426;28;20510;-72
2022/06/12 12:09:44;;;;;;;6.90;2.85;;;22.30;68.20;;;;;;5072028;28;20080;-72
2022/06/12 12:12:14;;;;;;;10.07;2.15;;;22.10;71.60;;;;;;5072438;28;20044;-73
2022/06/12 12:14:43;;;;;;;7.93;2.15;;;22.10;72.00;;;;;;5072764;28;20040;-72
2022/06/12 12:17:21;;;;;;;8.95;2.80;;;21.80;70.20;;;;;;5076678;28;20067;-72
2022/06/12 12:19:59;;;;;;;5.45;2.30;;;21.90;71.20;;;;;;5079403;28;20050;-72
2022/06/12 12:23:02;;;;;;;9.13;4.65;;;21.90;70.90;;;;;;5083927;28;20044;-72
2022/06/12 12:25:40;;;;;;;23.17;11.77;;;22.00;71.50;;;;;;5063387;28;20036;-73
2022/06/12 12:28:47;;;;;;;24.63;15.25;;;21.80;70.20;;;;;;5081610;28;20549;-72
2022/06/12 12:31:15;;;;;;;7.18;2.70;;;21.40;70.50;;;;;;5077134;28;20105;-73
2022/06/12 12:33:43;;;;;;;8.10;2.25;;;21.20;69.20;;;;;;5071286;28;20098;-74
2022/06/12 12:41:51;;;;;;;34.78;20.15;;;21.30;68.20;;;;;;5071995;28;20119;-72
2022/06/12 12:44:29;;;;;;;9.90;5.93;;;21.10;69.40;;;;;;5071178;28;20067;-72
2022/06/12 12:46:54;;;;;;;17.95;10.10;;;21.30;70.20;;;;;;5072410;28;20164;-72
2022/06/12 12:49:28;;;;;;;5.50;2.10;;;21.30;69.90;;;;;;5070811;28;20065;-73
2022/06/12 12:52:15;;;;;;;13.40;6.82;;;21.20;69.70;;;;;;5071916;28;20074;-72
2022/06/12 12:54:50;;;;;;;28.15;21.88;;;21.00;71.00;;;;;;5080819;28;20044;-73
2022/06/12 12:57:20;;;;;;;13.38;9.77;;;20.90;71.20;;;;;;5086471;28;20032;-72
2022/06/12 12:59:52;;;;;;;13.32;6.70;;;20.90;71.40;;;;;;5077449;28;20048;-73
2022/06/12 13:02:26;;;;;;;9.50;4.90;;;21.10;71.30;;;;;;5073146;28;20495;-73
2022/06/12 13:04:55;;;;;;;9.40;6.13;;;21.30;73.00;;;;;;5079937;28;20040;-72
2022/06/12 13:08:04;;;;;;;10.35;5.35;;;21.50;72.80;;;;;;5080456;28;20044;-73
2022/06/12 13:11:14;;;;;;;8.48;3.38;;;21.70;68.80;;;;;;5089323;28;20028;-72
2022/06/12 13:14:01;;;;;;;8.27;3.80;;;21.90;70.10;;;;;;5086033;28;20040;-74
2022/06/12 13:17:17;;;;;;;6.72;2.28;;;21.80;67.70;;;;;;5072663;28;20044;-73
2022/06/12 13:20:01;;;;;;;5.07;1.70;;;22.00;69.90;;;;;;5016732;28;20049;-74
2022/06/12 13:22:43;;;;;;;5.78;1.95;;;22.10;68.70;;;;;;5069293;28;20024;-72
2022/06/12 13:25:32;;;;;;;3.67;1.80;;;22.10;65.30;;;;;;5074798;28;20525;-73
2022/06/12 13:28:00;;;;;;;9.52;2.45;;;21.80;65.80;;;;;;5070281;28;20090;-73
2022/06/12 13:30:28;;;;;;;5.65;1.80;;;21.90;69.30;;;;;;5081992;28;20390;-73
2022/06/12 13:32:54;;;;;;;6.60;2.20;;;22.10;68.30;;;;;;5087421;28;20051;-73
2022/06/12 13:35:32;;;;;;;3.92;1.50;;;22.40;69.30;;;;;;5082493;28;20509;-74
2022/06/12 13:38:05;;;;;;;6.22;2.15;;;22.30;66.50;;;;;;5091784;28;20036;-73
2022/06/12 13:40:36;;;;;;;5.82;1.70;;;22.20;63.90;;;;;;5077316;28;20112;-73